sensor_id;sensor_type;location;lat;lon;timestamp;P1;durP1;ratioP1;P2;durP2;ratioP2
7215;SDS011;3649;48.798;9.798;2024-01-27T00:00:10;5.33;;;4.30;;
7215;SDS011;3649;48.798;9.798;2024-01-27T00:02:37;10.90;;;3.33;;
7215;SDS011;3649;48.798;9.798;2024-01-27T00:05:04;11.03;;;3.80;;
7215;SDS011;3649;48.798;9.798;2024-01-27T00:07:31;4.63;;;3.57;;
7215;SDS011;3649;48.798;9.798;2024-01-27T00:09:58;3.43;;;3.20;;
7215;SDS011;3649;48.798;9.798;2024-01-27T00:12:26;5.43;;;3.73;;
7215;SDS011;3649;48.798;9.798;2024-01-27T00:14:53;3.53;;;3.23;;
7215;SDS011;3649;48.798;9.798;2024-01-27T00:17:20;3.20;;;2.90;;
7215;SDS011;3649;48.798;9.798;2024-01-27T00:19:51;3.33;;;3.00;;
7215;SDS011;3649;48.798;9.798;2024-01-27T00:22:18;5.53;;;3.00;;
7215;SDS011;3649;48.798;9.798;2024-01-27T00:24:47;6.30;;;2.90;;
7215;SDS011;3649;48.798;9.798;2024-01-27T00:27:14;3.83;;;2.90;;
7215;SDS011;3649;48.798;9.798;2024-01-27T00:29:41;3.53;;;3.23;;
7215;SDS011;3649;48.798;9.798;2024-01-27T00:32:08;3.10;;;2.90;;
7215;SDS011;3649;48.798;9.798;2024-01-27T00:34:35;2.50;;;2.40;;
7215;SDS011;3649;48.798;9.798;2024-01-27T00:37:01;3.20;;;3.00;;
7215;SDS011;3649;48.798;9.798;2024-01-27T00:39:28;4.70;;;3.00;;
7215;SDS011;3649;48.798;9.798;2024-01-27T00:41:55;4.13;;;3.47;;
7215;SDS011;3649;48.798;9.798;2024-01-27T00:44:24;3.30;;;3.03;;
7215;SDS011;3649;48.798;9.798;2024-01-27T00:46:51;5.10;;;3.57;;
7215;SDS011;3649;48.798;9.798;2024-01-27T00:49:18;4.00;;;3.70;;
7215;SDS011;3649;48.798;9.798;2024-01-27T00:51:45;3.23;;;3.03;;
7215;SDS011;3649;48.798;9.798;2024-01-27T00:54:12;5.97;;;2.63;;
7215;SDS011;3649;48.798;9.798;2024-01-27T00:56:39;3.10;;;2.90;;
7215;SDS011;3649;48.798;9.798;2024-01-27T00:59:05;3.17;;;2.97;;
7215;SDS011;3649;48.798;9.798;2024-01-27T01:01:32;3.37;;;3.07;;
7215;SDS011;3649;48.798;9.798;2024-01-27T01:03:59;3.83;;;3.23;;
7215;SDS011;3649;48.798;9.798;2024-01-27T01:06:26;4.33;;;3.37;;
7215;SDS011;3649;48.798;9.798;2024-01-27T01:08:53;4.60;;;3.30;;
7215;SDS011;3649;48.798;9.798;2024-01-27T01:11:21;3.93;;;2.90;;
7215;SDS011;3649;48.798;9.798;2024-01-27T01:13:47;4.57;;;3.27;;
7215;SDS011;3649;48.798;9.798;2024-01-27T01:16:14;3.43;;;3.13;;
7215;SDS011;3649;48.798;9.798;2024-01-27T01:18:41;3.67;;;3.37;;
7215;SDS011;3649;48.798;9.798;2024-01-27T01:21:08;3.73;;;3.43;;
7215;SDS011;3649;48.798;9.798;2024-01-27T01:23:35;4.00;;;3.60;;
7215;SDS011;3649;48.798;9.798;2024-01-27T01:26:02;3.40;;;3.10;;
7215;SDS011;3649;48.798;9.798;2024-01-27T01:28:29;3.10;;;2.90;;
7215;SDS011;3649;48.798;9.798;2024-01-27T01:30:58;5.33;;;3.70;;
7215;SDS011;3649;48.798;9.798;2024-01-27T01:33:25;5.27;;;3.37;;
7215;SDS011;3649;48.798;9.798;2024-01-27T01:35:52;4.23;;;3.80;;
7215;SDS011;3649;48.798;9.798;2024-01-27T01:38:19;6.90;;;3.70;;
7215;SDS011;3649;48.798;9.798;2024-01-27T01:40:46;4.00;;;3.63;;
7215;SDS011;3649;48.798;9.798;2024-01-27T01:43:13;4.50;;;4.00;;
7215;SDS011;3649;48.798;9.798;2024-01-27T01:45:40;3.33;;;2.90;;
7215;SDS011;3649;48.798;9.798;2024-01-27T01:48:07;3.50;;;3.30;;
7215;SDS011;3649;48.798;9.798;2024-01-27T01:50:34;6.67;;;3.60;;
7215;SDS011;3649;48.798;9.798;2024-01-27T01:53:01;11.40;;;3.07;;
7215;SDS011;3649;48.798;9.798;2024-01-27T01:55:29;4.77;;;2.57;;
7215;SDS011;3649;48.798;9.798;2024-01-27T01:57:56;7.63;;;3.30;;
7215;SDS011;3649;48.798;9.798;2024-01-27T02:00:23;4.77;;;4.20;;
7215;SDS011;3649;48.798;9.798;2024-01-27T02:02:50;3.50;;;3.20;;
7215;SDS011;3649;48.798;9.798;2024-01-27T02:05:17;6.77;;;2.70;;
7215;SDS011;3649;48.798;9.798;2024-01-27T02:07:43;3.23;;;2.97;;
7215;SDS011;3649;48.798;9.798;2024-01-27T02:10:14;3.00;;;2.70;;
7215;SDS011;3649;48.798;9.798;2024-01-27T02:12:43;2.70;;;2.50;;
7215;SDS011;3649;48.798;9.798;2024-01-27T02:15:11;4.63;;;3.30;;
7215;SDS011;3649;48.798;9.798;2024-01-27T02:17:39;4.43;;;3.00;;
7215;SDS011;3649;48.798;9.798;2024-01-27T02:20:07;3.43;;;3.13;;
7215;SDS011;3649;48.798;9.798;2024-01-27T02:22:34;3.60;;;3.10;;
7215;SDS011;3649;48.798;9.798;2024-01-27T02:25:04;4.37;;;3.40;;
7215;SDS011;3649;48.798;9.798;2024-01-27T02:27:31;3.40;;;3.17;;
7215;SDS011;3649;48.798;9.798;2024-01-27T02:29:58;5.63;;;3.30;;
7215;SDS011;3649;48.798;9.798;2024-01-27T02:32:25;4.97;;;3.47;;
7215;SDS011;3649;48.798;9.798;2024-01-27T02:34:52;9.43;;;3.40;;
7215;SDS011;3649;48.798;9.798;2024-01-27T02:37:19;6.70;;;3.70;;
7215;SDS011;3649;48.798;9.798;2024-01-27T02:39:46;4.67;;;2.97;;
7215;SDS011;3649;48.798;9.798;2024-01-27T02:42:12;3.43;;;3.20;;
7215;SDS011;3649;48.798;9.798;2024-01-27T02:44:39;3.37;;;3.17;;
7215;SDS011;3649;48.798;9.798;2024-01-27T02:47:06;10.83;;;3.37;;
7215;SDS011;3649;48.798;9.798;2024-01-27T02:49:33;6.03;;;3.00;;
7215;SDS011;3649;48.798;9.798;2024-01-27T02:52:00;3.60;;;3.27;;
7215;SDS011;3649;48.798;9.798;2024-01-27T02:54:27;3.27;;;3.00;;
7215;SDS011;3649;48.798;9.798;2024-01-27T02:56:54;3.07;;;2.87;;
7215;SDS011;3649;48.798;9.798;2024-01-27T02:59:21;4.70;;;3.10;;
7215;SDS011;3649;48.798;9.798;2024-01-27T03:01:48;2.90;;;2.60;;
7215;SDS011;3649;48.798;9.798;2024-01-27T03:04:14;2.80;;;2.70;;
7215;SDS011;3649;48.798;9.798;2024-01-27T03:06:41;2.90;;;2.70;;
7215;SDS011;3649;48.798;9.798;2024-01-27T03:09:08;3.13;;;2.93;;
7215;SDS011;3649;48.798;9.798;2024-01-27T03:11:37;3.67;;;2.80;;
7215;SDS011;3649;48.798;9.798;2024-01-27T03:14:03;4.87;;;2.80;;
7215;SDS011;3649;48.798;9.798;2024-01-27T03:16:30;4.17;;;2.80;;
7215;SDS011;3649;48.798;9.798;2024-01-27T03:18:58;2.93;;;2.73;;
7215;SDS011;3649;48.798;9.798;2024-01-27T03:21:25;5.43;;;3.73;;
7215;SDS011;3649;48.798;9.798;2024-01-27T03:23:53;3.57;;;3.37;;
7215;SDS011;3649;48.798;9.798;2024-01-27T03:26:20;3.30;;;3.00;;
7215;SDS011;3649;48.798;9.798;2024-01-27T03:28:47;4.37;;;3.63;;
7215;SDS011;3649;48.798;9.798;2024-01-27T03:31:14;4.30;;;3.77;;
7215;SDS011;3649;48.798;9.798;2024-01-27T03:33:41;3.70;;;3.40;;
7215;SDS011;3649;48.798;9.798;2024-01-27T03:36:12;3.83;;;3.37;;
7215;SDS011;3649;48.798;9.798;2024-01-27T03:38:43;4.73;;;3.70;;
7215;SDS011;3649;48.798;9.798;2024-01-27T03:41:09;3.90;;;3.40;;
7215;SDS011;3649;48.798;9.798;2024-01-27T03:43:36;7.80;;;3.70;;
7215;SDS011;3649;48.798;9.798;2024-01-27T03:46:06;5.23;;;3.50;;
7215;SDS011;3649;48.798;9.798;2024-01-27T03:48:33;4.67;;;3.90;;
7215;SDS011;3649;48.798;9.798;2024-01-27T03:51:03;4.03;;;3.63;;
7215;SDS011;3649;48.798;9.798;2024-01-27T03:53:30;3.80;;;3.50;;
7215;SDS011;3649;48.798;9.798;2024-01-27T03:55:57;4.80;;;3.90;;
7215;SDS011;3649;48.798;9.798;2024-01-27T03:58:30;4.07;;;3.67;;
7215;SDS011;3649;48.798;9.798;2024-01-27T04:00:57;4.53;;;3.50;;
7215;SDS011;3649;48.798;9.798;2024-01-27T04:03:27;3.70;;;3.40;;
7215;SDS011;3649;48.798;9.798;2024-01-27T04:05:55;5.90;;;4.13;;
7215;SDS011;3649;48.798;9.798;2024-01-27T04:08:22;8.33;;;4.00;;
7215;SDS011;3649;48.798;9.798;2024-01-27T04:10:49;7.40;;;3.60;;
7215;SDS011;3649;48.798;9.798;2024-01-27T04:13:16;4.50;;;4.10;;
7215;SDS011;3649;48.798;9.798;2024-01-27T04:15:43;4.43;;;3.60;;
7215;SDS011;3649;48.798;9.798;2024-01-27T04:18:09;5.53;;;3.60;;
7215;SDS011;3649;48.798;9.798;2024-01-27T04:20:38;9.23;;;3.93;;
7215;SDS011;3649;48.798;9.798;2024-01-27T04:23:04;7.50;;;3.80;;
7215;SDS011;3649;48.798;9.798;2024-01-27T04:25:31;8.93;;;3.63;;
7215;SDS011;3649;48.798;9.798;2024-01-27T04:27:58;4.30;;;3.90;;
7215;SDS011;3649;48.798;9.798;2024-01-27T04:30:25;7.17;;;3.43;;
7215;SDS011;3649;48.798;9.798;2024-01-27T04:32:52;6.27;;;3.40;;
7215;SDS011;3649;48.798;9.798;2024-01-27T04:35:18;6.90;;;3.80;;
7215;SDS011;3649;48.798;9.798;2024-01-27T04:37:45;3.93;;;3.37;;
7215;SDS011;3649;48.798;9.798;2024-01-27T04:40:13;5.00;;;3.77;;
7215;SDS011;3649;48.798;9.798;2024-01-27T04:42:40;3.80;;;3.47;;
7215;SDS011;3649;48.798;9.798;2024-01-27T04:45:07;13.37;;;3.37;;
7215;SDS011;3649;48.798;9.798;2024-01-27T04:47:34;6.80;;;3.50;;
7215;SDS011;3649;48.798;9.798;2024-01-27T04:50:01;12.87;;;3.53;;
7215;SDS011;3649;48.798;9.798;2024-01-27T04:52:28;7.20;;;3.43;;
7215;SDS011;3649;48.798;9.798;2024-01-27T04:54:55;6.17;;;3.10;;
7215;SDS011;3649;48.798;9.798;2024-01-27T04:57:21;3.27;;;3.07;;
7215;SDS011;3649;48.798;9.798;2024-01-27T04:59:48;3.20;;;3.00;;
7215;SDS011;3649;48.798;9.798;2024-01-27T05:02:15;3.60;;;3.23;;
7215;SDS011;3649;48.798;9.798;2024-01-27T05:04:42;3.27;;;3.07;;
7215;SDS011;3649;48.798;9.798;2024-01-27T05:07:09;3.47;;;3.17;;
7215;SDS011;3649;48.798;9.798;2024-01-27T05:09:36;3.30;;;3.10;;
7215;SDS011;3649;48.798;9.798;2024-01-27T05:12:03;3.60;;;3.30;;
7215;SDS011;3649;48.798;9.798;2024-01-27T05:14:30;3.00;;;2.80;;
7215;SDS011;3649;48.798;9.798;2024-01-27T05:16:57;2.80;;;2.60;;
7215;SDS011;3649;48.798;9.798;2024-01-27T05:19:23;2.83;;;2.63;;
7215;SDS011;3649;48.798;9.798;2024-01-27T05:21:50;3.27;;;2.90;;
7215;SDS011;3649;48.798;9.798;2024-01-27T05:24:17;3.10;;;2.90;;
7215;SDS011;3649;48.798;9.798;2024-01-27T05:26:44;3.20;;;2.90;;
7215;SDS011;3649;48.798;9.798;2024-01-27T05:29:11;3.27;;;3.07;;
7215;SDS011;3649;48.798;9.798;2024-01-27T05:31:38;4.03;;;3.03;;
7215;SDS011;3649;48.798;9.798;2024-01-27T05:34:05;3.70;;;3.40;;
7215;SDS011;3649;48.798;9.798;2024-01-27T05:36:31;5.07;;;2.90;;
7215;SDS011;3649;48.798;9.798;2024-01-27T05:38:59;3.70;;;3.00;;
7215;SDS011;3649;48.798;9.798;2024-01-27T05:41:26;3.03;;;2.83;;
7215;SDS011;3649;48.798;9.798;2024-01-27T05:43:55;3.50;;;3.20;;
7215;SDS011;3649;48.798;9.798;2024-01-27T05:46:25;4.17;;;3.83;;
7215;SDS011;3649;48.798;9.798;2024-01-27T05:48:52;4.07;;;3.67;;
7215;SDS011;3649;48.798;9.798;2024-01-27T05:51:21;3.30;;;3.00;;
7215;SDS011;3649;48.798;9.798;2024-01-27T05:53:49;4.03;;;3.63;;
7215;SDS011;3649;48.798;9.798;2024-01-27T05:56:16;3.60;;;3.40;;
7215;SDS011;3649;48.798;9.798;2024-01-27T05:58:52;4.17;;;3.10;;
7215;SDS011;3649;48.798;9.798;2024-01-27T06:01:19;4.23;;;3.77;;
7215;SDS011;3649;48.798;9.798;2024-01-27T06:03:46;3.40;;;2.97;;
7215;SDS011;3649;48.798;9.798;2024-01-27T06:06:13;3.67;;;3.40;;
7215;SDS011;3649;48.798;9.798;2024-01-27T06:08:41;3.80;;;3.50;;
7215;SDS011;3649;48.798;9.798;2024-01-27T06:11:08;3.63;;;3.07;;
7215;SDS011;3649;48.798;9.798;2024-01-27T06:13:36;3.70;;;3.50;;
7215;SDS011;3649;48.798;9.798;2024-01-27T06:16:07;4.20;;;3.80;;
7215;SDS011;3649;48.798;9.798;2024-01-27T06:18:37;4.23;;;3.60;;
7215;SDS011;3649;48.798;9.798;2024-01-27T06:21:05;4.00;;;3.70;;
7215;SDS011;3649;48.798;9.798;2024-01-27T06:23:32;4.67;;;4.20;;
7215;SDS011;3649;48.798;9.798;2024-01-27T06:26:03;4.57;;;4.03;;
7215;SDS011;3649;48.798;9.798;2024-01-27T06:28:32;5.23;;;4.17;;
7215;SDS011;3649;48.798;9.798;2024-01-27T06:30:59;4.70;;;4.30;;
7215;SDS011;3649;48.798;9.798;2024-01-27T06:33:25;5.47;;;4.33;;
7215;SDS011;3649;48.798;9.798;2024-01-27T06:35:52;5.70;;;3.87;;
7215;SDS011;3649;48.798;9.798;2024-01-27T06:38:19;4.07;;;3.67;;
7215;SDS011;3649;48.798;9.798;2024-01-27T06:40:46;3.30;;;3.00;;
7215;SDS011;3649;48.798;9.798;2024-01-27T06:43:13;3.53;;;3.23;;
7215;SDS011;3649;48.798;9.798;2024-01-27T06:45:40;4.07;;;3.77;;
7215;SDS011;3649;48.798;9.798;2024-01-27T06:48:07;4.30;;;3.93;;
7215;SDS011;3649;48.798;9.798;2024-01-27T06:50:34;6.30;;;4.47;;
7215;SDS011;3649;48.798;9.798;2024-01-27T06:53:01;7.90;;;4.33;;
7215;SDS011;3649;48.798;9.798;2024-01-27T06:55:28;6.27;;;4.53;;
7215;SDS011;3649;48.798;9.798;2024-01-27T06:57:55;5.17;;;4.57;;
7215;SDS011;3649;48.798;9.798;2024-01-27T07:00:22;4.33;;;3.93;;
7215;SDS011;3649;48.798;9.798;2024-01-27T07:02:49;5.10;;;4.43;;
7215;SDS011;3649;48.798;9.798;2024-01-27T07:05:16;5.90;;;4.37;;
7215;SDS011;3649;48.798;9.798;2024-01-27T07:07:43;6.50;;;4.63;;
7215;SDS011;3649;48.798;9.798;2024-01-27T07:10:13;4.50;;;4.10;;
7215;SDS011;3649;48.798;9.798;2024-01-27T07:12:40;4.17;;;3.80;;
7215;SDS011;3649;48.798;9.798;2024-01-27T07:15:07;5.80;;;4.30;;
7215;SDS011;3649;48.798;9.798;2024-01-27T07:17:36;6.10;;;4.50;;
7215;SDS011;3649;48.798;9.798;2024-01-27T07:20:03;11.83;;;4.53;;
7215;SDS011;3649;48.798;9.798;2024-01-27T07:22:31;5.80;;;5.20;;
7215;SDS011;3649;48.798;9.798;2024-01-27T07:24:59;5.50;;;5.00;;
7215;SDS011;3649;48.798;9.798;2024-01-27T07:27:26;5.40;;;4.90;;
7215;SDS011;3649;48.798;9.798;2024-01-27T07:29:53;7.67;;;5.17;;
7215;SDS011;3649;48.798;9.798;2024-01-27T07:32:20;6.03;;;5.43;;
7215;SDS011;3649;48.798;9.798;2024-01-27T07:34:48;6.13;;;5.13;;
7215;SDS011;3649;48.798;9.798;2024-01-27T07:37:15;7.33;;;5.50;;
7215;SDS011;3649;48.798;9.798;2024-01-27T07:39:42;6.20;;;5.40;;
7215;SDS011;3649;48.798;9.798;2024-01-27T07:42:12;8.00;;;5.93;;
7215;SDS011;3649;48.798;9.798;2024-01-27T07:44:39;8.33;;;6.30;;
7215;SDS011;3649;48.798;9.798;2024-01-27T07:47:06;7.47;;;6.00;;
7215;SDS011;3649;48.798;9.798;2024-01-27T07:49:32;9.27;;;6.83;;
7215;SDS011;3649;48.798;9.798;2024-01-27T07:52:00;7.10;;;6.07;;
7215;SDS011;3649;48.798;9.798;2024-01-27T07:54:27;7.50;;;6.37;;
7215;SDS011;3649;48.798;9.798;2024-01-27T07:56:53;9.47;;;7.20;;
7215;SDS011;3649;48.798;9.798;2024-01-27T07:59:20;8.47;;;6.57;;
7215;SDS011;3649;48.798;9.798;2024-01-27T08:01:47;8.83;;;7.00;;
7215;SDS011;3649;48.798;9.798;2024-01-27T08:04:14;8.00;;;6.60;;
7215;SDS011;3649;48.798;9.798;2024-01-27T08:06:46;8.23;;;6.37;;
7215;SDS011;3649;48.798;9.798;2024-01-27T08:09:17;6.37;;;5.57;;
7215;SDS011;3649;48.798;9.798;2024-01-27T08:11:45;9.60;;;6.27;;
7215;SDS011;3649;48.798;9.798;2024-01-27T08:14:17;9.63;;;6.27;;
7215;SDS011;3649;48.798;9.798;2024-01-27T08:16:46;9.30;;;7.00;;
7215;SDS011;3649;48.798;9.798;2024-01-27T08:19:13;8.20;;;7.37;;
7215;SDS011;3649;48.798;9.798;2024-01-27T08:21:46;11.60;;;7.67;;
7215;SDS011;3649;48.798;9.798;2024-01-27T08:24:13;11.23;;;7.83;;
7215;SDS011;3649;48.798;9.798;2024-01-27T08:26:41;7.80;;;7.00;;
7215;SDS011;3649;48.798;9.798;2024-01-27T08:29:11;8.63;;;7.43;;
7215;SDS011;3649;48.798;9.798;2024-01-27T08:31:38;8.30;;;6.97;;
7215;SDS011;3649;48.798;9.798;2024-01-27T08:34:05;9.57;;;7.30;;
7215;SDS011;3649;48.798;9.798;2024-01-27T08:36:32;11.77;;;8.60;;
7215;SDS011;3649;48.798;9.798;2024-01-27T08:39:00;12.53;;;8.27;;
7215;SDS011;3649;48.798;9.798;2024-01-27T08:41:27;13.80;;;9.83;;
7215;SDS011;3649;48.798;9.798;2024-01-27T08:43:55;12.10;;;9.33;;
7215;SDS011;3649;48.798;9.798;2024-01-27T08:46:22;14.43;;;9.70;;
7215;SDS011;3649;48.798;9.798;2024-01-27T08:49:00;19.93;;;11.53;;
7215;SDS011;3649;48.798;9.798;2024-01-27T08:51:27;11.60;;;9.10;;
7215;SDS011;3649;48.798;9.798;2024-01-27T08:53:54;12.13;;;8.20;;
7215;SDS011;3649;48.798;9.798;2024-01-27T08:56:21;12.67;;;8.53;;
7215;SDS011;3649;48.798;9.798;2024-01-27T08:58:48;10.80;;;6.30;;
7215;SDS011;3649;48.798;9.798;2024-01-27T09:01:17;10.07;;;6.07;;
7215;SDS011;3649;48.798;9.798;2024-01-27T09:03:45;6.40;;;5.13;;
7215;SDS011;3649;48.798;9.798;2024-01-27T09:06:12;6.40;;;5.37;;
7215;SDS011;3649;48.798;9.798;2024-01-27T09:08:40;6.67;;;5.43;;
7215;SDS011;3649;48.798;9.798;2024-01-27T09:11:07;6.27;;;5.27;;
7215;SDS011;3649;48.798;9.798;2024-01-27T09:13:35;7.23;;;5.67;;
7215;SDS011;3649;48.798;9.798;2024-01-27T09:16:02;6.53;;;5.93;;
7215;SDS011;3649;48.798;9.798;2024-01-27T09:18:29;8.27;;;5.77;;
7215;SDS011;3649;48.798;9.798;2024-01-27T09:20:57;6.73;;;6.00;;
7215;SDS011;3649;48.798;9.798;2024-01-27T09:23:24;7.10;;;6.40;;
7215;SDS011;3649;48.798;9.798;2024-01-27T09:25:51;9.00;;;6.23;;
7215;SDS011;3649;48.798;9.798;2024-01-27T09:28:17;7.47;;;6.70;;
7215;SDS011;3649;48.798;9.798;2024-01-27T09:30:44;9.27;;;7.03;;
7215;SDS011;3649;48.798;9.798;2024-01-27T09:33:11;9.07;;;7.23;;
7215;SDS011;3649;48.798;9.798;2024-01-27T09:35:38;11.37;;;9.00;;
7215;SDS011;3649;48.798;9.798;2024-01-27T09:38:05;12.23;;;9.97;;
7215;SDS011;3649;48.798;9.798;2024-01-27T09:40:38;15.43;;;9.77;;
7215;SDS011;3649;48.798;9.798;2024-01-27T09:43:04;11.60;;;9.17;;
7215;SDS011;3649;48.798;9.798;2024-01-27T09:45:32;14.00;;;8.83;;
7215;SDS011;3649;48.798;9.798;2024-01-27T09:47:59;10.47;;;7.80;;
7215;SDS011;3649;48.798;9.798;2024-01-27T09:50:29;10.67;;;7.67;;
7215;SDS011;3649;48.798;9.798;2024-01-27T09:52:56;9.63;;;7.00;;
7215;SDS011;3649;48.798;9.798;2024-01-27T09:55:23;9.43;;;6.97;;
7215;SDS011;3649;48.798;9.798;2024-01-27T09:57:50;10.97;;;6.60;;
7215;SDS011;3649;48.798;9.798;2024-01-27T10:00:18;8.30;;;6.07;;
7215;SDS011;3649;48.798;9.798;2024-01-27T10:02:46;9.93;;;7.10;;
7215;SDS011;3649;48.798;9.798;2024-01-27T10:05:14;9.80;;;7.67;;
7215;SDS011;3649;48.798;9.798;2024-01-27T10:07:41;9.23;;;7.13;;
7215;SDS011;3649;48.798;9.798;2024-01-27T10:10:09;9.43;;;6.90;;
7215;SDS011;3649;48.798;9.798;2024-01-27T10:12:40;7.90;;;6.93;;
7215;SDS011;3649;48.798;9.798;2024-01-27T10:15:21;10.63;;;6.57;;
7215;SDS011;3649;48.798;9.798;2024-01-27T10:17:49;13.00;;;6.93;;
7215;SDS011;3649;48.798;9.798;2024-01-27T10:20:17;9.23;;;5.70;;
7215;SDS011;3649;48.798;9.798;2024-01-27T10:22:46;12.67;;;6.83;;
7215;SDS011;3649;48.798;9.798;2024-01-27T10:25:13;10.73;;;6.67;;
7215;SDS011;3649;48.798;9.798;2024-01-27T10:27:41;9.80;;;6.23;;
7215;SDS011;3649;48.798;9.798;2024-01-27T10:30:15;7.60;;;5.03;;
7215;SDS011;3649;48.798;9.798;2024-01-27T10:32:55;11.67;;;7.07;;
7215;SDS011;3649;48.798;9.798;2024-01-27T10:35:24;8.80;;;5.60;;
7215;SDS011;3649;48.798;9.798;2024-01-27T10:37:51;12.30;;;6.23;;
7215;SDS011;3649;48.798;9.798;2024-01-27T10:40:24;9.60;;;6.03;;
7215;SDS011;3649;48.798;9.798;2024-01-27T10:42:57;10.67;;;6.00;;
7215;SDS011;3649;48.798;9.798;2024-01-27T10:45:29;14.23;;;6.30;;
7215;SDS011;3649;48.798;9.798;2024-01-27T10:48:03;15.23;;;7.10;;
7215;SDS011;3649;48.798;9.798;2024-01-27T10:50:32;9.97;;;5.50;;
7215;SDS011;3649;48.798;9.798;2024-01-27T10:53:09;27.43;;;6.93;;
7215;SDS011;3649;48.798;9.798;2024-01-27T10:55:42;8.17;;;5.83;;
7215;SDS011;3649;48.798;9.798;2024-01-27T10:58:12;10.43;;;5.80;;
7215;SDS011;3649;48.798;9.798;2024-01-27T11:00:39;11.67;;;5.00;;
7215;SDS011;3649;48.798;9.798;2024-01-27T11:03:09;5.90;;;3.43;;
7215;SDS011;3649;48.798;9.798;2024-01-27T11:05:37;10.27;;;3.40;;
7215;SDS011;3649;48.798;9.798;2024-01-27T11:08:06;10.80;;;3.53;;
7215;SDS011;3649;48.798;9.798;2024-01-27T11:10:35;8.67;;;3.20;;
7215;SDS011;3649;48.798;9.798;2024-01-27T11:13:04;11.00;;;3.80;;
7215;SDS011;3649;48.798;9.798;2024-01-27T11:15:31;9.70;;;4.03;;
7215;SDS011;3649;48.798;9.798;2024-01-27T11:17:59;6.47;;;3.77;;
7215;SDS011;3649;48.798;9.798;2024-01-27T11:20:26;7.93;;;4.00;;
7215;SDS011;3649;48.798;9.798;2024-01-27T11:22:53;9.20;;;3.80;;
7215;SDS011;3649;48.798;9.798;2024-01-27T11:25:23;6.67;;;3.37;;
7215;SDS011;3649;48.798;9.798;2024-01-27T11:27:53;7.17;;;3.27;;
7215;SDS011;3649;48.798;9.798;2024-01-27T11:30:27;6.03;;;3.73;;
7215;SDS011;3649;48.798;9.798;2024-01-27T11:32:55;9.33;;;4.27;;
7215;SDS011;3649;48.798;9.798;2024-01-27T11:35:24;8.33;;;4.30;;
7215;SDS011;3649;48.798;9.798;2024-01-27T11:37:51;5.67;;;3.90;;
7215;SDS011;3649;48.798;9.798;2024-01-27T11:40:18;7.00;;;3.77;;
7215;SDS011;3649;48.798;9.798;2024-01-27T11:42:55;8.50;;;3.97;;
7215;SDS011;3649;48.798;9.798;2024-01-27T11:45:26;9.57;;;3.50;;
7215;SDS011;3649;48.798;9.798;2024-01-27T11:47:56;7.37;;;3.93;;
7215;SDS011;3649;48.798;9.798;2024-01-27T11:50:23;14.57;;;4.20;;
7215;SDS011;3649;48.798;9.798;2024-01-27T11:52:50;9.70;;;4.10;;
7215;SDS011;3649;48.798;9.798;2024-01-27T11:55:17;9.27;;;4.20;;
7215;SDS011;3649;48.798;9.798;2024-01-27T11:57:45;9.57;;;4.70;;
7215;SDS011;3649;48.798;9.798;2024-01-27T12:00:12;6.80;;;3.73;;
7215;SDS011;3649;48.798;9.798;2024-01-27T12:02:40;6.97;;;4.30;;
7215;SDS011;3649;48.798;9.798;2024-01-27T12:05:10;8.73;;;4.40;;
7215;SDS011;3649;48.798;9.798;2024-01-27T12:07:38;9.33;;;3.80;;
7215;SDS011;3649;48.798;9.798;2024-01-27T12:10:05;10.80;;;3.50;;
7215;SDS011;3649;48.798;9.798;2024-01-27T12:12:33;6.57;;;3.00;;
7215;SDS011;3649;48.798;9.798;2024-01-27T12:15:00;8.67;;;3.23;;
7215;SDS011;3649;48.798;9.798;2024-01-27T12:17:29;7.00;;;2.90;;
7215;SDS011;3649;48.798;9.798;2024-01-27T12:19:56;8.27;;;3.10;;
7215;SDS011;3649;48.798;9.798;2024-01-27T12:22:23;6.13;;;3.30;;
7215;SDS011;3649;48.798;9.798;2024-01-27T12:24:55;4.87;;;2.83;;
7215;SDS011;3649;48.798;9.798;2024-01-27T12:27:34;5.57;;;3.00;;
7215;SDS011;3649;48.798;9.798;2024-01-27T12:30:01;8.73;;;3.23;;
7215;SDS011;3649;48.798;9.798;2024-01-27T12:32:31;12.77;;;3.83;;
7215;SDS011;3649;48.798;9.798;2024-01-27T12:34:58;10.47;;;3.67;;
7215;SDS011;3649;48.798;9.798;2024-01-27T12:37:30;9.87;;;3.40;;
7215;SDS011;3649;48.798;9.798;2024-01-27T12:39:57;8.07;;;3.80;;
7215;SDS011;3649;48.798;9.798;2024-01-27T12:42:24;7.17;;;3.63;;
7215;SDS011;3649;48.798;9.798;2024-01-27T12:44:51;10.03;;;3.93;;
7215;SDS011;3649;48.798;9.798;2024-01-27T12:47:18;12.37;;;3.57;;
7215;SDS011;3649;48.798;9.798;2024-01-27T12:49:46;7.73;;;3.60;;
7215;SDS011;3649;48.798;9.798;2024-01-27T12:52:13;5.83;;;3.30;;
7215;SDS011;3649;48.798;9.798;2024-01-27T12:54:40;3.80;;;3.50;;
7215;SDS011;3649;48.798;9.798;2024-01-27T12:57:07;5.10;;;2.77;;
7215;SDS011;3649;48.798;9.798;2024-01-27T12:59:38;10.30;;;3.10;;
7215;SDS011;3649;48.798;9.798;2024-01-27T13:02:05;5.77;;;2.93;;
7215;SDS011;3649;48.798;9.798;2024-01-27T13:04:32;6.63;;;3.20;;
7215;SDS011;3649;48.798;9.798;2024-01-27T13:06:59;7.70;;;3.10;;
7215;SDS011;3649;48.798;9.798;2024-01-27T13:09:26;6.37;;;2.57;;
7215;SDS011;3649;48.798;9.798;2024-01-27T13:11:53;5.07;;;2.60;;
7215;SDS011;3649;48.798;9.798;2024-01-27T13:14:21;5.77;;;2.57;;
7215;SDS011;3649;48.798;9.798;2024-01-27T13:16:49;5.73;;;2.57;;
7215;SDS011;3649;48.798;9.798;2024-01-27T13:19:16;11.07;;;3.10;;
7215;SDS011;3649;48.798;9.798;2024-01-27T13:21:43;4.73;;;2.37;;
7215;SDS011;3649;48.798;9.798;2024-01-27T13:24:10;7.37;;;2.50;;
7215;SDS011;3649;48.798;9.798;2024-01-27T13:26:37;7.27;;;3.10;;
7215;SDS011;3649;48.798;9.798;2024-01-27T13:29:04;6.93;;;2.70;;
7215;SDS011;3649;48.798;9.798;2024-01-27T13:31:32;5.13;;;2.23;;
7215;SDS011;3649;48.798;9.798;2024-01-27T13:33:59;8.50;;;2.87;;
7215;SDS011;3649;48.798;9.798;2024-01-27T13:36:27;4.83;;;3.20;;
7215;SDS011;3649;48.798;9.798;2024-01-27T13:38:55;3.80;;;2.40;;
7215;SDS011;3649;48.798;9.798;2024-01-27T13:41:22;5.63;;;2.50;;
7215;SDS011;3649;48.798;9.798;2024-01-27T13:43:49;3.63;;;2.53;;
7215;SDS011;3649;48.798;9.798;2024-01-27T13:46:16;8.87;;;3.70;;
7215;SDS011;3649;48.798;9.798;2024-01-27T13:48:43;7.93;;;2.40;;
7215;SDS011;3649;48.798;9.798;2024-01-27T13:51:10;7.13;;;2.93;;
7215;SDS011;3649;48.798;9.798;2024-01-27T13:53:38;3.87;;;2.50;;
7215;SDS011;3649;48.798;9.798;2024-01-27T13:56:13;10.67;;;3.07;;
7215;SDS011;3649;48.798;9.798;2024-01-27T13:58:41;8.97;;;3.30;;
7215;SDS011;3649;48.798;9.798;2024-01-27T14:01:08;6.70;;;3.33;;
7215;SDS011;3649;48.798;9.798;2024-01-27T14:03:35;5.67;;;3.30;;
7215;SDS011;3649;48.798;9.798;2024-01-27T14:06:04;5.80;;;2.97;;
7215;SDS011;3649;48.798;9.798;2024-01-27T14:08:32;5.77;;;3.50;;
7215;SDS011;3649;48.798;9.798;2024-01-27T14:10:59;6.80;;;2.70;;
7215;SDS011;3649;48.798;9.798;2024-01-27T14:13:26;6.80;;;2.83;;
7215;SDS011;3649;48.798;9.798;2024-01-27T14:15:53;4.37;;;2.80;;
7215;SDS011;3649;48.798;9.798;2024-01-27T14:18:20;7.70;;;2.93;;
7215;SDS011;3649;48.798;9.798;2024-01-27T14:20:48;3.63;;;2.50;;
7215;SDS011;3649;48.798;9.798;2024-01-27T14:23:17;3.80;;;2.30;;
7215;SDS011;3649;48.798;9.798;2024-01-27T14:25:44;4.53;;;2.60;;
7215;SDS011;3649;48.798;9.798;2024-01-27T14:28:13;5.53;;;2.80;;
7215;SDS011;3649;48.798;9.798;2024-01-27T14:30:41;4.33;;;2.30;;
7215;SDS011;3649;48.798;9.798;2024-01-27T14:33:10;5.83;;;2.57;;
7215;SDS011;3649;48.798;9.798;2024-01-27T14:35:37;8.67;;;2.77;;
7215;SDS011;3649;48.798;9.798;2024-01-27T14:38:05;8.00;;;3.03;;
7215;SDS011;3649;48.798;9.798;2024-01-27T14:40:35;4.13;;;2.37;;
7215;SDS011;3649;48.798;9.798;2024-01-27T14:43:03;5.63;;;2.60;;
7215;SDS011;3649;48.798;9.798;2024-01-27T14:45:36;5.77;;;2.50;;
7215;SDS011;3649;48.798;9.798;2024-01-27T14:48:03;5.60;;;2.10;;
7215;SDS011;3649;48.798;9.798;2024-01-27T14:50:31;5.83;;;2.30;;
7215;SDS011;3649;48.798;9.798;2024-01-27T14:52:58;4.43;;;1.90;;
7215;SDS011;3649;48.798;9.798;2024-01-27T14:55:28;8.60;;;2.63;;
7215;SDS011;3649;48.798;9.798;2024-01-27T14:57:57;6.23;;;2.40;;
7215;SDS011;3649;48.798;9.798;2024-01-27T15:00:24;4.80;;;2.13;;
7215;SDS011;3649;48.798;9.798;2024-01-27T15:02:51;3.27;;;1.93;;
7215;SDS011;3649;48.798;9.798;2024-01-27T15:05:18;3.33;;;1.90;;
7215;SDS011;3649;48.798;9.798;2024-01-27T15:07:46;3.30;;;1.90;;
7215;SDS011;3649;48.798;9.798;2024-01-27T15:10:12;3.07;;;2.10;;
7215;SDS011;3649;48.798;9.798;2024-01-27T15:12:39;6.13;;;2.67;;
7215;SDS011;3649;48.798;9.798;2024-01-27T15:15:06;5.23;;;2.00;;